Terminal Aerodrome Forecast
Issued by NWS Mobile, AL

Home | Current Version | Previous Version | Text Only | Print | Product List | Glossary On
Versions: 1 2 3 4 5 6 7 8 9 10 11 12 13 14 15
000
FTUS44 KMOB 010525
TAFPNS
TAF
KPNS 010525Z 0106/0206 00000KT P6SM SCT250
     FM010900 15002KT 5SM BR FEW250
     FM011600 19012KT P6SM VCTS FEW040CB BKN250
     FM020300 22004KT P6SM SCT250=

USA.gov is the U.S. government's official web portal to all federal, state and local government web resources and services.